< < Back
Terminal Aerodrome Forecast


Current Version              Previous Versions:   1  2  3  4  5  6  7  8  9  

Terminal Aerodrome Forecast

625
FTUS44 KBMX 292330
TAFBHM
TAF
KBHM 292330Z 3000/3024 10007KT 3SM SHRA VCTS SCT006CB BKN015 OVC050
     FM300100 13007KT P6SM -SHRA BKN015
     FM300600 VRB03KT P6SM BKN100
      TEMPO 3009/3012 BKN015
     FM301200 00000KT 4SM BR OVC015
     FM301800 02004KT P6SM VCSH OVC050=

Latest METAR

921
SAUS70 KWBC 301000 RRH
MTRBHM
METAR KBHM 300953Z 04006KT 6SM -RA BR BKN021 BKN060 OVC100 21/20 A3010
RMK AO2 SLP184 P0011 T02060200 $


USA.gov is the U.S. government's official web portal to all federal, state and local government web resources and services.